createdAt,value
2019-05-07T00:00:35.719Z,16.56
2019-05-07T00:03:03.279Z,17.95
2019-05-07T00:05:29.791Z,18.33
2019-05-07T00:07:55.968Z,17.26
2019-05-07T00:10:24.685Z,16.58
2019-05-07T00:12:52.018Z,18.39
2019-05-07T00:15:18.424Z,17.50
2019-05-07T00:17:44.583Z,17.93
2019-05-07T00:20:12.797Z,18.36
2019-05-07T00:22:39.101Z,17.58
2019-05-07T00:25:05.655Z,17.90
2019-05-07T00:27:32.164Z,18.24
2019-05-07T00:29:58.434Z,17.86
2019-05-07T00:32:24.590Z,17.50
2019-05-07T00:34:54.296Z,16.98
2019-05-07T00:37:25.035Z,18.05
2019-05-07T00:40:09.910Z,18.60
2019-05-07T00:42:54.413Z,17.82
2019-05-07T00:45:23.849Z,17.29
2019-05-07T00:47:52.105Z,17.95
2019-05-07T00:50:23.156Z,17.95
2019-05-07T00:52:49.350Z,17.95
2019-05-07T00:55:15.533Z,16.90
2019-05-07T00:57:42.845Z,18.72
2019-05-07T01:00:09.835Z,18.06
2019-05-07T01:02:35.984Z,17.44
2019-05-07T01:05:03.146Z,18.17
2019-05-07T01:07:29.601Z,17.95
2019-05-07T01:09:58.615Z,17.47
2019-05-07T01:12:24.794Z,17.31
2019-05-07T01:14:52.862Z,17.71
2019-05-07T01:17:19.154Z,18.09
2019-05-07T01:19:45.335Z,17.08
2019-05-07T01:22:12.631Z,17.51
2019-05-07T01:24:39.007Z,17.83
2019-05-07T01:27:05.280Z,17.26
2019-05-07T01:29:32.879Z,17.74
2019-05-07T01:32:02.989Z,17.87
2019-05-07T01:34:32.265Z,18.29
2019-05-07T01:36:58.647Z,18.90
2019-05-07T01:39:24.805Z,18.33
2019-05-07T01:41:52.441Z,17.67
2019-05-07T01:44:18.794Z,19.36
2019-05-07T01:46:44.976Z,17.00
2019-05-07T01:49:12.615Z,17.08
2019-05-07T01:51:39.143Z,17.97
2019-05-07T01:54:05.299Z,18.57
2019-05-07T01:56:33.148Z,17.52
2019-05-07T01:58:59.596Z,17.67
2019-05-07T02:01:25.748Z,17.98
2019-05-07T02:04:02.646Z,17.60
2019-05-07T02:06:36.236Z,17.95
2019-05-07T02:09:13.013Z,17.15
2019-05-07T02:11:42.339Z,17.20
2019-05-07T02:14:08.772Z,18.23
2019-05-07T02:16:35.063Z,17.21
2019-05-07T02:19:02.176Z,17.39
2019-05-07T02:21:28.728Z,18.59
2019-05-07T02:23:54.921Z,17.21
2019-05-07T02:26:22.590Z,17.89
2019-05-07T02:28:49.165Z,18.48
2019-05-07T02:31:15.383Z,17.35
2019-05-07T02:33:43.438Z,16.94
2019-05-07T02:36:09.628Z,17.53
2019-05-07T02:38:43.849Z,17.87
2019-05-07T02:41:25.386Z,17.43
2019-05-07T02:43:53.689Z,18.20
2019-05-07T02:46:37.954Z,17.15
2019-05-07T02:49:23.980Z,17.80
2019-05-07T02:52:08.366Z,16.83
2019-05-07T02:54:36.467Z,17.27
2019-05-07T02:57:03.323Z,17.47
2019-05-07T02:59:29.713Z,17.34
2019-05-07T03:01:56.043Z,16.70
2019-05-07T03:04:25.159Z,17.04
2019-05-07T03:06:50.364Z,17.66
2019-05-07T03:09:16.671Z,16.42
2019-05-07T03:11:43.584Z,17.37
2019-05-07T03:14:10.021Z,17.11
2019-05-07T03:16:43.737Z,17.77
2019-05-07T03:19:04.414Z,17.95
2019-05-07T03:21:48.838Z,18.29
2019-05-07T03:24:25.478Z,18.99
2019-05-07T03:26:53.597Z,17.11
2019-05-07T03:29:24.028Z,16.75
2019-05-07T03:31:56.336Z,18.24
2019-05-07T03:34:46.524Z,16.64
2019-05-07T03:37:13.663Z,17.94
2019-05-07T03:39:42.963Z,17.42
2019-05-07T03:42:08.139Z,17.71
2019-05-07T03:44:48.050Z,17.68
2019-05-07T03:47:15.646Z,18.07
2019-05-07T03:49:42.988Z,17.11
2019-05-07T03:52:09.514Z,18.32
2019-05-07T03:54:35.679Z,17.76
2019-05-07T03:57:10.349Z,17.86
2019-05-07T03:59:29.973Z,17.56
2019-05-07T04:01:56.149Z,17.36
2019-05-07T04:04:23.112Z,18.98
2019-05-07T04:06:49.604Z,18.66
2019-05-07T04:09:15.793Z,19.76
2019-05-07T04:11:43.371Z,18.26
2019-05-07T04:14:09.784Z,18.03
2019-05-07T04:16:36.071Z,18.30
2019-05-07T04:19:03.927Z,18.87
2019-05-07T04:21:30.247Z,18.55
2019-05-07T04:24:12.853Z,17.89
2019-05-07T04:26:42.863Z,19.25
2019-05-07T04:29:17.962Z,18.35
2019-05-07T04:31:44.184Z,18.00
2019-05-07T04:34:13.390Z,18.57
2019-05-07T04:36:43.524Z,19.12
2019-05-07T04:39:12.951Z,18.23
2019-05-07T04:41:38.134Z,18.55
2019-05-07T04:44:04.309Z,17.82
2019-05-07T04:46:33.249Z,18.22
2019-05-07T04:48:58.613Z,18.62
2019-05-07T04:51:26.781Z,19.10
2019-05-07T04:53:54.039Z,19.70
2019-05-07T04:56:23.547Z,18.69
2019-05-07T04:58:48.790Z,18.60
2019-05-07T05:01:16.893Z,16.94
2019-05-07T05:03:44.087Z,17.43
2019-05-07T05:06:10.256Z,18.87
2019-05-07T05:08:37.372Z,19.78
2019-05-07T05:11:03.702Z,19.94
2019-05-07T05:13:32.201Z,17.90
2019-05-07T05:16:01.933Z,18.25
2019-05-07T05:18:27.997Z,18.16
2019-05-07T05:21:04.722Z,18.90
2019-05-07T05:23:32.821Z,19.02
2019-05-07T05:25:59.030Z,18.60
2019-05-07T05:28:25.319Z,19.64
2019-05-07T05:31:05.231Z,18.61
2019-05-07T05:33:32.380Z,18.83
2019-05-07T05:35:58.699Z,18.46
2019-05-07T05:38:24.881Z,18.45
2019-05-07T05:40:52.023Z,19.28
2019-05-07T05:43:22.353Z,18.52
2019-05-07T05:45:56.717Z,19.21
2019-05-07T05:48:22.907Z,18.86
2019-05-07T05:50:53.422Z,20.00
2019-05-07T05:53:38.932Z,18.94
2019-05-07T05:56:23.468Z,19.37
2019-05-07T05:58:57.367Z,20.12
2019-05-07T06:01:25.451Z,19.67
2019-05-07T06:03:59.483Z,18.05
2019-05-07T06:06:38.204Z,18.60
2019-05-07T06:09:21.924Z,18.16
2019-05-07T06:12:06.632Z,18.35
2019-05-07T06:14:34.770Z,20.62
2019-05-07T06:17:02.855Z,19.19
2019-05-07T06:19:39.511Z,20.34
2019-05-07T06:22:16.475Z,19.50
2019-05-07T06:24:46.001Z,19.83
2019-05-07T06:27:12.346Z,20.53
2019-05-07T06:29:39.663Z,19.69
2019-05-07T06:32:12.144Z,19.81
2019-05-07T06:34:41.729Z,19.23
2019-05-07T06:37:06.561Z,19.06
2019-05-07T06:39:37.440Z,19.37
2019-05-07T06:42:22.261Z,20.10
2019-05-07T06:45:02.950Z,19.44
2019-05-07T06:47:31.771Z,18.05
2019-05-07T06:49:57.431Z,19.19
2019-05-07T06:52:23.738Z,18.63
2019-05-07T06:54:52.254Z,19.38
2019-05-07T06:57:17.979Z,19.27
2019-05-07T06:59:46.217Z,19.83
2019-05-07T07:02:22.940Z,19.35
2019-05-07T07:04:51.870Z,20.08
2019-05-07T07:07:29.829Z,18.70
2019-05-07T07:10:02.675Z,20.48
2019-05-07T07:12:33.140Z,18.75
2019-05-07T07:14:59.137Z,20.11
2019-05-07T07:17:25.333Z,19.32
2019-05-07T07:19:52.345Z,19.21
2019-05-07T07:22:18.779Z,19.32
2019-05-07T07:24:45.072Z,20.04
2019-05-07T07:27:13.168Z,20.99
2019-05-07T07:29:46.953Z,19.32
2019-05-07T07:32:15.083Z,19.71
2019-05-07T07:34:43.152Z,18.92
2019-05-07T07:37:20.209Z,20.59
2019-05-07T07:39:46.480Z,20.21
2019-05-07T07:42:12.653Z,20.46
2019-05-07T07:44:38.864Z,20.17
2019-05-07T07:47:05.141Z,19.32
2019-05-07T07:49:32.994Z,20.17
2019-05-07T07:51:59.458Z,20.74
2019-05-07T07:54:25.629Z,20.46
2019-05-07T07:56:56.796Z,21.16
2019-05-07T08:02:12.450Z,20.17
2019-05-07T08:04:38.794Z,18.87
2019-05-07T08:07:06.021Z,19.44
2019-05-07T08:09:34.004Z,20.24
2019-05-07T08:12:02.579Z,19.79
2019-05-07T08:18:11.947Z,20.25
2019-05-07T08:20:38.400Z,21.67
2019-05-07T08:23:04.564Z,20.09
2019-05-07T08:29:18.862Z,20.51
2019-05-07T08:31:46.935Z,20.38
2019-05-07T08:34:23.877Z,20.32
2019-05-07T08:36:50.159Z,19.35
2019-05-07T08:39:16.340Z,20.32
2019-05-07T08:41:42.658Z,21.24
2019-05-07T08:44:25.864Z,21.56
2019-05-07T08:47:02.851Z,21.82
2019-05-07T08:57:42.058Z,21.39
2019-05-07T09:00:09.124Z,21.91
2019-05-07T09:02:35.283Z,22.00
2019-05-07T09:05:02.932Z,21.65
2019-05-07T09:07:29.504Z,21.20
2019-05-07T09:09:55.665Z,22.82
2019-05-07T09:12:22.957Z,22.77
2019-05-07T09:14:49.417Z,24.74
2019-05-07T09:17:15.592Z,23.40
2019-05-07T09:19:50.813Z,22.74
2019-05-07T09:22:12.504Z,20.69
2019-05-07T09:24:38.504Z,23.57
2019-05-07T09:27:23.129Z,24.07
2019-05-07T09:29:52.008Z,21.84
2019-05-07T09:32:22.622Z,21.75
2019-05-07T09:34:52.044Z,20.96
2019-05-07T09:37:26.228Z,20.24
2019-05-07T09:39:52.423Z,22.37
2019-05-07T09:42:18.681Z,22.39
2019-05-07T09:44:44.838Z,21.50
2019-05-07T09:47:12.891Z,21.47
2019-05-07T09:49:39.202Z,20.99
2019-05-07T09:52:06.091Z,20.97
2019-05-07T09:54:32.497Z,23.08
2019-05-07T09:56:58.627Z,20.78
2019-05-07T09:59:24.790Z,22.92
2019-05-07T10:01:51.178Z,22.19
2019-05-07T10:04:17.336Z,22.69
2019-05-07T10:06:43.513Z,22.68
2019-05-07T10:09:11.877Z,23.00
2019-05-07T10:11:48.807Z,22.45
2019-05-07T10:14:15.008Z,23.32
2019-05-07T10:16:43.091Z,23.53
2019-05-07T10:19:09.347Z,23.14
2019-05-07T10:21:35.543Z,23.46
2019-05-07T10:24:02.374Z,23.68
2019-05-07T10:26:28.765Z,21.65
2019-05-07T10:28:54.965Z,20.59
2019-05-07T10:31:22.302Z,22.37
2019-05-07T10:33:48.692Z,22.92
2019-05-07T10:36:14.880Z,21.38
2019-05-07T10:38:41.037Z,22.49
2019-05-07T10:41:07.236Z,21.49
2019-05-07T10:43:33.419Z,22.70
2019-05-07T10:46:18.349Z,22.89
2019-05-07T10:48:49.002Z,22.24
2019-05-07T10:51:15.160Z,22.43
2019-05-07T10:53:42.434Z,22.41
2019-05-07T10:56:08.937Z,22.73
2019-05-07T10:58:35.108Z,21.27
2019-05-07T11:01:02.886Z,22.39
2019-05-07T11:03:29.478Z,21.37
2019-05-07T11:05:55.670Z,21.90
2019-05-07T11:08:22.239Z,21.50
2019-05-07T11:10:48.597Z,23.34
2019-05-07T11:13:14.865Z,23.32
2019-05-07T11:15:43.055Z,23.89
2019-05-07T11:18:12.645Z,23.73
2019-05-07T11:20:47.329Z,22.97
2019-05-07T11:23:07.047Z,22.71
2019-05-07T11:25:33.343Z,23.28
2019-05-07T11:27:59.499Z,22.36
2019-05-07T11:30:25.875Z,22.75
2019-05-07T11:32:52.441Z,21.95
2019-05-07T11:35:18.946Z,21.57
2019-05-07T11:37:45.095Z,21.07
2019-05-07T11:40:13.071Z,21.63
2019-05-07T11:42:58.000Z,20.92
2019-05-07T11:45:26.153Z,22.43
2019-05-07T11:47:52.454Z,23.76
2019-05-07T11:50:22.624Z,22.00
2019-05-07T11:52:56.072Z,22.32
2019-05-07T11:55:22.487Z,21.97
2019-05-07T11:57:48.644Z,20.99
2019-05-07T12:00:18.555Z,21.60
2019-05-07T12:02:47.266Z,20.96
2019-05-07T12:05:12.955Z,21.53
2019-05-07T12:07:39.144Z,20.85
2019-05-07T12:10:05.335Z,20.91
2019-05-07T12:12:32.574Z,22.42
2019-05-07T12:14:59.038Z,21.93
2019-05-07T12:17:25.307Z,21.91
2019-05-07T12:19:52.658Z,22.26
2019-05-07T12:22:30.383Z,20.85
2019-05-07T12:24:56.533Z,19.67
2019-05-07T12:27:23.092Z,20.04
2019-05-07T12:29:49.532Z,21.03
2019-05-07T12:32:17.616Z,21.29
2019-05-07T12:34:48.220Z,21.69
2019-05-07T12:37:14.403Z,20.56
2019-05-07T12:39:42.349Z,20.16
2019-05-07T12:42:08.777Z,20.83
2019-05-07T12:44:35.016Z,20.49
2019-05-07T12:47:01.750Z,21.67
2019-05-07T12:49:28.066Z,20.40
2019-05-07T12:51:56.166Z,20.32
2019-05-07T12:54:24.256Z,20.12
2019-05-07T12:56:52.029Z,19.71
2019-05-07T12:59:18.370Z,19.76
2019-05-07T13:01:46.454Z,20.45
2019-05-07T13:04:17.051Z,21.87
2019-05-07T13:06:47.935Z,22.81
2019-05-07T13:09:14.232Z,22.68
2019-05-07T13:11:42.397Z,23.91
2019-05-07T13:14:08.567Z,22.79
2019-05-07T13:16:34.725Z,22.26
2019-05-07T13:19:01.885Z,21.71
2019-05-07T13:21:28.383Z,22.56
2019-05-07T13:23:54.567Z,21.45
2019-05-07T13:26:24.363Z,21.23
2019-05-07T13:28:48.935Z,20.70
2019-05-07T13:31:18.117Z,21.10
2019-05-07T13:33:45.282Z,22.08
2019-05-07T13:36:12.358Z,21.31
2019-05-07T13:38:42.662Z,22.11
2019-05-07T13:41:12.712Z,21.13
2019-05-07T13:43:40.831Z,21.94
2019-05-07T13:46:12.052Z,21.58
2019-05-07T13:48:43.054Z,20.48
2019-05-07T13:51:08.520Z,19.77
2019-05-07T13:53:34.720Z,18.92
2019-05-07T13:56:02.324Z,19.46
2019-05-07T13:58:28.898Z,20.80
2019-05-07T14:01:13.571Z,20.53
2019-05-07T14:03:39.863Z,21.81
2019-05-07T14:06:06.041Z,20.48
2019-05-07T14:08:34.284Z,21.20
2019-05-07T14:11:02.646Z,18.28
2019-05-07T14:13:28.562Z,20.45
2019-05-07T14:16:08.732Z,20.49
2019-05-07T14:18:36.643Z,20.08
2019-05-07T14:21:04.519Z,21.22
2019-05-07T14:23:32.499Z,20.05
2019-05-07T14:25:58.902Z,19.83
2019-05-07T14:28:25.064Z,21.00
2019-05-07T14:30:52.281Z,19.76
2019-05-07T14:33:36.741Z,18.87
2019-05-07T14:36:05.069Z,19.31
2019-05-07T14:38:33.134Z,20.01
2019-05-07T14:41:00.183Z,20.25
2019-05-07T14:43:29.016Z,20.22
2019-05-07T14:45:55.362Z,19.94
2019-05-07T14:48:22.593Z,19.36
2019-05-07T14:50:49.168Z,19.82
2019-05-07T14:53:15.361Z,18.68
2019-05-07T14:55:41.917Z,19.97
2019-05-07T14:58:08.965Z,20.49
2019-05-07T15:00:35.399Z,19.52
2019-05-07T15:03:02.016Z,20.30
2019-05-07T15:05:28.428Z,20.93
2019-05-07T15:08:07.387Z,18.83
2019-05-07T15:10:22.811Z,18.79
2019-05-07T15:12:49.208Z,18.72
2019-05-07T15:15:15.531Z,18.53
2019-05-07T15:17:49.185Z,19.06
2019-05-07T15:20:15.389Z,19.26
2019-05-07T15:23:02.732Z,18.89
2019-05-07T15:25:29.312Z,18.09
2019-05-07T15:27:58.292Z,17.70
2019-05-07T15:30:26.342Z,18.47
2019-05-07T15:32:52.595Z,18.39
2019-05-07T15:35:18.764Z,17.64
2019-05-07T15:37:44.928Z,18.75
2019-05-07T15:40:11.359Z,18.48
2019-05-07T15:42:37.519Z,18.48
2019-05-07T15:45:04.380Z,18.63
2019-05-07T15:47:32.500Z,19.17
2019-05-07T15:49:58.784Z,19.38
2019-05-07T15:52:26.852Z,18.86
2019-05-07T15:54:53.060Z,19.05
2019-05-07T15:57:29.291Z,18.91
2019-05-07T16:00:05.946Z,19.42
2019-05-07T16:02:34.035Z,17.43
2019-05-07T16:05:02.235Z,19.43
2019-05-07T16:07:28.432Z,19.15
2019-05-07T16:09:54.604Z,18.26
2019-05-07T16:12:22.662Z,18.25
2019-05-07T16:14:49.166Z,19.17
2019-05-07T16:17:17.278Z,18.21
2019-05-07T16:19:43.434Z,18.01
2019-05-07T16:22:12.764Z,18.61
2019-05-07T16:24:39.060Z,18.51
2019-05-07T16:27:05.381Z,18.58
2019-05-07T16:29:35.192Z,18.03
2019-05-07T16:31:59.804Z,18.29
2019-05-07T16:34:26.011Z,18.41
2019-05-07T16:36:52.205Z,18.23
2019-05-07T16:39:18.406Z,19.14
2019-05-07T16:41:44.579Z,18.62
2019-05-07T16:44:12.322Z,18.87
2019-05-07T16:46:38.789Z,17.90
2019-05-07T16:49:04.956Z,17.50
2019-05-07T16:51:33.021Z,18.39
2019-05-07T16:54:00.874Z,17.76
2019-05-07T16:56:27.305Z,17.31
2019-05-07T16:58:58.177Z,17.96
2019-05-07T17:01:24.801Z,17.99
2019-05-07T17:03:56.748Z,17.97
2019-05-07T17:06:25.178Z,18.51
2019-05-07T17:09:02.596Z,18.43
2019-05-07T17:11:29.244Z,17.43
2019-05-07T17:13:55.430Z,17.57
2019-05-07T17:16:22.855Z,17.64
2019-05-07T17:18:51.849Z,17.62
2019-05-07T17:21:18.496Z,18.04
2019-05-07T17:23:44.900Z,18.72
2019-05-07T17:26:11.771Z,18.12
2019-05-07T17:28:38.036Z,17.56
2019-05-07T17:31:04.315Z,18.38
2019-05-07T17:33:31.976Z,18.09
2019-05-07T17:35:58.403Z,18.13
2019-05-07T17:38:24.593Z,18.92
2019-05-07T17:40:52.154Z,18.26
2019-05-07T17:43:18.647Z,19.04
2019-05-07T17:45:44.931Z,18.56
2019-05-07T17:48:12.330Z,19.47
2019-05-07T17:50:58.636Z,17.82
2019-05-07T17:53:24.832Z,18.81
2019-05-07T17:55:52.869Z,18.38
2019-05-07T17:58:19.096Z,18.61
2019-05-07T18:00:47.213Z,17.98
2019-05-07T18:03:33.625Z,18.37
2019-05-07T18:06:02.239Z,18.64
2019-05-07T18:08:28.317Z,18.56
2019-05-07T18:10:55.813Z,17.92
2019-05-07T18:13:22.418Z,18.30
2019-05-07T18:15:48.892Z,18.33
2019-05-07T18:18:15.176Z,18.19
2019-05-07T18:20:42.223Z,18.64
2019-05-07T18:23:10.735Z,18.90
2019-05-07T18:25:36.677Z,18.75
2019-05-07T18:28:03.116Z,18.64
2019-05-07T18:30:29.382Z,18.83
2019-05-07T18:33:03.238Z,18.44
2019-05-07T18:35:29.476Z,17.92
2019-05-07T18:37:55.644Z,18.24
2019-05-07T18:40:21.933Z,18.05
2019-05-07T18:42:48.450Z,17.85
2019-05-07T18:45:14.724Z,17.82
2019-05-07T18:47:40.906Z,18.39
2019-05-07T18:50:07.104Z,18.11
2019-05-07T18:52:33.280Z,19.08
2019-05-07T18:54:59.560Z,18.98
2019-05-07T18:57:25.806Z,18.19
2019-05-07T18:59:53.169Z,18.72
2019-05-07T19:02:19.822Z,18.13
2019-05-07T19:04:46.182Z,18.59
2019-05-07T19:07:13.189Z,18.48
2019-05-07T19:09:39.842Z,19.20
2019-05-07T19:12:08.024Z,19.30
2019-05-07T19:14:34.330Z,18.29
2019-05-07T19:17:03.016Z,19.06
2019-05-07T19:19:28.923Z,19.79
2019-05-07T19:21:55.494Z,19.39
2019-05-07T19:24:25.844Z,20.05
2019-05-07T19:26:52.673Z,19.46
2019-05-07T19:29:19.637Z,19.41
2019-05-07T19:31:46.147Z,19.10
2019-05-07T19:34:12.961Z,18.66
2019-05-07T19:36:39.573Z,19.27
2019-05-07T19:39:06.198Z,18.67
2019-05-07T19:41:32.920Z,18.95
2019-05-07T19:44:01.893Z,19.24
2019-05-07T19:46:27.973Z,18.74
2019-05-07T19:48:54.484Z,17.83
2019-05-07T19:51:20.961Z,17.70
2019-05-07T19:53:47.122Z,18.41
2019-05-07T19:56:21.883Z,17.60
2019-05-07T19:58:48.412Z,19.19
2019-05-07T20:01:16.495Z,19.34
2019-05-07T20:03:43.453Z,18.46
2019-05-07T20:06:09.910Z,19.36
2019-05-07T20:08:36.094Z,18.43
2019-05-07T20:11:19.030Z,19.12
2019-05-07T20:13:45.285Z,19.48
2019-05-07T20:16:13.392Z,18.91
2019-05-07T20:18:39.592Z,18.56
2019-05-07T20:21:05.763Z,19.04
2019-05-07T20:23:32.737Z,18.28
2019-05-07T20:25:59.137Z,18.57
2019-05-07T20:28:25.291Z,18.74
2019-05-07T20:30:52.662Z,18.41
2019-05-07T20:33:21.849Z,18.14
2019-05-07T20:35:47.924Z,17.47
2019-05-07T20:38:14.111Z,17.71
2019-05-07T20:40:42.367Z,17.52
2019-05-07T20:43:08.909Z,18.41
2019-05-07T20:45:35.376Z,18.34
2019-05-07T20:48:02.544Z,17.50
2019-05-07T20:50:28.992Z,17.80
2019-05-07T20:52:55.272Z,17.45
2019-05-07T20:55:30.652Z,17.48
2019-05-07T20:57:53.602Z,18.27
2019-05-07T21:00:22.872Z,17.74
2019-05-07T21:02:52.477Z,18.13
2019-05-07T21:05:18.856Z,18.58
2019-05-07T21:07:45.025Z,18.07
2019-05-07T21:10:12.664Z,17.67
2019-05-07T21:12:39.007Z,18.13
2019-05-07T21:15:05.890Z,17.70
2019-05-07T21:17:32.325Z,17.85
2019-05-07T21:19:58.588Z,17.87
2019-05-07T21:22:24.742Z,17.37
2019-05-07T21:24:53.005Z,17.91
2019-05-07T21:27:19.117Z,18.29
2019-05-07T21:29:45.295Z,17.89
2019-05-07T21:32:12.430Z,16.55
2019-05-07T21:34:38.881Z,16.74
2019-05-07T21:37:08.391Z,18.51
2019-05-07T21:39:33.294Z,18.53
2019-05-07T21:41:59.452Z,18.26
2019-05-07T21:44:25.612Z,18.26
2019-05-07T21:46:51.948Z,19.26
2019-05-07T21:49:18.101Z,17.73
2019-05-07T21:51:44.961Z,17.67
2019-05-07T21:54:15.869Z,17.36
2019-05-07T21:56:55.707Z,17.41
2019-05-07T21:59:35.693Z,18.07
2019-05-07T22:02:03.155Z,18.20
2019-05-07T22:04:29.457Z,18.14
2019-05-07T22:06:55.644Z,18.23
2019-05-07T22:09:22.435Z,19.04
2019-05-07T22:11:48.787Z,18.40
2019-05-07T22:14:15.087Z,19.05
2019-05-07T22:16:41.268Z,18.48
2019-05-07T22:19:07.457Z,18.57
2019-05-07T22:21:34.276Z,19.02
2019-05-07T22:24:02.730Z,19.08
2019-05-07T22:26:28.901Z,18.92
2019-05-07T22:28:55.121Z,19.80
2019-05-07T22:31:25.695Z,17.62
2019-05-07T22:33:59.652Z,18.76
2019-05-07T22:36:25.807Z,18.23
2019-05-07T22:38:52.796Z,18.81
2019-05-07T22:41:19.097Z,19.28
2019-05-07T22:43:45.247Z,18.15
2019-05-07T22:46:12.419Z,18.72
2019-05-07T22:48:39.035Z,19.02
2019-05-07T22:51:05.212Z,19.03
2019-05-07T22:53:32.761Z,19.30
2019-05-07T22:55:59.291Z,19.04
2019-05-07T22:58:27.347Z,18.67
2019-05-07T23:01:12.942Z,18.99
2019-05-07T23:03:38.627Z,19.84
2019-05-07T23:06:07.418Z,19.44
2019-05-07T23:08:35.865Z,19.23
2019-05-07T23:11:02.833Z,18.66
2019-05-07T23:13:29.104Z,19.19
2019-05-07T23:15:55.321Z,19.31
2019-05-07T23:18:22.679Z,18.80
2019-05-07T23:20:48.971Z,19.56
2019-05-07T23:23:15.171Z,19.46
2019-05-07T23:25:43.112Z,18.54
2019-05-07T23:28:09.497Z,18.69
2019-05-07T23:30:35.894Z,18.73
2019-05-07T23:33:02.547Z,19.00
2019-05-07T23:35:28.840Z,19.56
2019-05-07T23:37:55.046Z,19.05
2019-05-07T23:40:25.897Z,19.55
2019-05-07T23:42:53.985Z,19.23
2019-05-07T23:45:22.093Z,18.64
2019-05-07T23:47:48.249Z,18.92
2019-05-07T23:50:14.438Z,20.02
2019-05-07T23:52:43.981Z,18.41
2019-05-07T23:55:08.723Z,20.56
2019-05-07T23:57:34.900Z,18.55
